Time;durP1;ratioP1;P1;durP2;ratioP2;P2;SDS_P1;SDS_P2;PMS_P1;PMS_P2;Temp;Humidity;BMP_temperature;BMP_pressure;BME280_temperature;BME280_humidity;BME280_pressure;Samples;Min_cycle;Max_cycle;Signal;HPM_P1;HPM_P2
2024/04/08 00:01:54;;;;;;;;;;;15.70;99.90;;;;;;5052474;28;19916;-67
2024/04/08 00:04:19;;;;;;;;;;;15.70;99.90;;;;;;5052400;28;20303;-67
2024/04/08 00:06:45;;;;;;;;;;;15.70;99.90;;;;;;5052360;28;19905;-67
2024/04/08 00:09:10;;;;;;;;;;;15.70;99.90;;;;;;5052063;28;19951;-67
2024/04/08 00:11:36;;;;;;;;;;;15.70;99.90;;;;;;5052315;28;20424;-67
2024/04/08 00:14:01;;;;;;;;;;;15.80;99.90;;;;;;5052277;28;19908;-67
2024/04/08 00:16:28;;;;;;;;;;;15.70;99.90;;;;;;5052090;28;20335;-67
2024/04/08 00:18:53;;;;;;;;;;;15.70;99.90;;;;;;5052039;28;20262;-67
2024/04/08 00:21:19;;;;;;;;;;;15.70;99.90;;;;;;5052165;28;20003;-67
2024/04/08 00:23:44;;;;;;;;;;;15.70;99.90;;;;;;5052100;28;19958;-67
2024/04/08 00:26:10;;;;;;;;;;;15.70;99.90;;;;;;5052160;28;19941;-67
2024/04/08 00:28:38;;;;;;;;;;;15.50;99.90;;;;;;5051796;28;19904;-67
2024/04/08 00:31:04;;;;;;;;;;;15.60;99.90;;;;;;5052072;28;19912;-67
2024/04/08 00:33:30;;;;;;;;;;;15.50;99.90;;;;;;5052044;28;19904;-67
2024/04/08 00:35:55;;;;;;;;;;;15.40;99.90;;;;;;5051998;28;20292;-67
2024/04/08 00:38:21;;;;;;;;;;;15.40;99.90;;;;;;5051831;28;19905;-67
2024/04/08 00:40:46;;;;;;;;;;;15.40;99.90;;;;;;5051889;28;19955;-67
2024/04/08 00:43:12;;;;;;;;;;;15.40;99.90;;;;;;5055029;28;19905;-67
2024/04/08 00:45:39;;;;;;;;;;;15.40;99.90;;;;;;5056345;28;19927;-67
2024/04/08 00:48:06;;;;;;;;;;;15.40;99.90;;;;;;5056059;28;19909;-67
2024/04/08 00:50:31;;;;;;;;;;;15.20;99.90;;;;;;5055698;28;19916;-67
2024/04/08 00:52:57;;;;;;;;;;;15.20;99.90;;;;;;5055976;28;20360;-67
2024/04/08 00:55:23;;;;;;;;;;;15.10;99.90;;;;;;5055949;28;19909;-67
2024/04/08 00:57:49;;;;;;;;;;;15.10;99.90;;;;;;5055877;28;20351;-67
2024/04/08 01:00:15;;;;;;;;;;;15.20;99.90;;;;;;5055416;28;19959;-67
2024/04/08 01:02:40;;;;;;;;;;;15.20;99.90;;;;;;5055795;28;19908;-67
2024/04/08 01:05:08;;;;;;;;;;;15.30;99.90;;;;;;5055755;28;19991;-67
2024/04/08 01:07:34;;;;;;;;;;;15.30;99.90;;;;;;5055682;28;20301;-67
2024/04/08 01:10:00;;;;;;;;;;;15.40;99.90;;;;;;5055428;28;19993;-67
2024/04/08 01:12:25;;;;;;;;;;;15.30;99.90;;;;;;5055604;28;19935;-67
2024/04/08 01:14:50;;;;;;;;;;;15.40;99.90;;;;;;5055487;28;19905;-67
2024/04/08 01:17:16;;;;;;;;;;;15.40;99.90;;;;;;5055464;28;19912;-67
2024/04/08 01:19:42;;;;;;;;;;;15.40;99.90;;;;;;5055037;28;20016;-67
2024/04/08 01:22:08;;;;;;;;;;;15.40;99.90;;;;;;5055440;28;19966;-67
2024/04/08 01:24:33;;;;;;;;;;;15.40;99.90;;;;;;5055322;28;20253;-67
2024/04/08 01:27:00;;;;;;;;;;;15.40;99.90;;;;;;5055387;28;19904;-67
2024/04/08 01:29:26;;;;;;;;;;;15.40;99.90;;;;;;5054968;28;19955;-67
2024/04/08 01:31:51;;;;;;;;;;;15.20;99.90;;;;;;5055285;28;19908;-67
2024/04/08 01:34:17;;;;;;;;;;;15.10;99.90;;;;;;5055138;28;19905;-67
2024/04/08 01:36:43;;;;;;;;;;;15.10;99.90;;;;;;5055141;28;20384;-67
2024/04/08 01:39:09;;;;;;;;;;;15.00;99.90;;;;;;5054881;28;19943;-67
2024/04/08 01:41:35;;;;;;;;;;;15.00;99.90;;;;;;5055004;28;19915;-67
2024/04/08 01:44:00;;;;;;;;;;;15.00;99.90;;;;;;5055199;28;19992;-67
2024/04/08 01:46:26;;;;;;;;;;;14.90;99.90;;;;;;5054996;28;19905;-67
2024/04/08 01:48:51;;;;;;;;;;;14.30;99.90;;;;;;5054571;28;19908;-67
2024/04/08 01:51:17;;;;;;;;;;;14.80;99.90;;;;;;5054928;28;19909;-67
2024/04/08 01:53:42;;;;;;;;;;;14.80;99.90;;;;;;5053568;28;19904;-67
2024/04/08 01:56:08;;;;;;;;;;;14.80;99.90;;;;;;5054788;28;20379;-67
2024/04/08 01:58:33;;;;;;;;;;;14.80;99.90;;;;;;5054464;28;19912;-67
2024/04/08 02:00:59;;;;;;;;;;;14.80;99.90;;;;;;5054599;28;19935;-67
2024/04/08 02:03:24;;;;;;;;;;;14.80;99.90;;;;;;5054616;28;19911;-67
2024/04/08 02:05:50;;;;;;;;;;;14.70;99.90;;;;;;5054559;28;19911;-67
2024/04/08 02:08:15;;;;;;;;;;;14.60;99.90;;;;;;5054345;28;19905;-67
2024/04/08 02:10:43;;;;;;;;;;;14.50;99.90;;;;;;5054466;28;19962;-67
2024/04/08 02:13:08;;;;;;;;;;;14.50;99.90;;;;;;5054415;28;20276;-67
2024/04/08 02:15:34;;;;;;;;;;;14.50;99.90;;;;;;5054387;28;19997;-67
2024/04/08 02:17:59;;;;;;;;;;;14.40;99.90;;;;;;5054311;28;19913;-67
2024/04/08 02:20:25;;;;;;;;;;;14.40;99.90;;;;;;5053966;28;19909;-67
2024/04/08 02:22:51;;;;;;;;;;;14.40;99.90;;;;;;5054186;28;19951;-67
2024/04/08 02:25:17;;;;;;;;;;;14.40;99.90;;;;;;5054262;28;19932;-67
2024/04/08 02:27:43;;;;;;;;;;;14.40;99.90;;;;;;5054163;28;19905;-67
2024/04/08 02:30:09;;;;;;;;;;;14.40;99.90;;;;;;5053902;28;19966;-67
2024/04/08 02:32:35;;;;;;;;;;;14.30;99.90;;;;;;5054054;28;19905;-67
2024/04/08 02:35:01;;;;;;;;;;;14.40;99.90;;;;;;5054085;28;20000;-67
2024/04/08 02:37:26;;;;;;;;;;;14.50;99.90;;;;;;5054020;28;19916;-67
2024/04/08 02:39:52;;;;;;;;;;;14.40;99.90;;;;;;5053577;28;20284;-67
2024/04/08 02:42:17;;;;;;;;;;;14.40;99.90;;;;;;5052656;28;19905;-67
2024/04/08 02:44:43;;;;;;;;;;;14.40;99.90;;;;;;5053869;28;20422;-67
2024/04/08 02:47:08;;;;;;;;;;;14.40;99.90;;;;;;5053839;28;19905;-67
2024/04/08 02:49:34;;;;;;;;;;;14.50;99.90;;;;;;5053508;28;19967;-67
2024/04/08 02:51:59;;;;;;;;;;;14.50;99.90;;;;;;5053798;28;19905;-67
2024/04/08 02:54:24;;;;;;;;;;;14.50;99.90;;;;;;5054037;28;19904;-67
2024/04/08 02:56:50;;;;;;;;;;;14.50;99.90;;;;;;5053602;28;19905;-67
2024/04/08 02:59:15;;;;;;;;;;;14.40;99.90;;;;;;5053359;28;19905;-67
2024/04/08 03:01:41;;;;;;;;;;;14.40;99.90;;;;;;5053420;28;19917;-67
2024/04/08 03:04:07;;;;;;;;;;;14.30;99.90;;;;;;5053495;28;19911;-67
2024/04/08 03:06:32;;;;;;;;;;;14.20;99.90;;;;;;5053153;28;20288;-67
2024/04/08 03:08:58;;;;;;;;;;;14.10;99.90;;;;;;5053131;28;20007;-67
2024/04/08 03:11:23;;;;;;;;;;;14.00;99.90;;;;;;5053325;28;20376;-67
2024/04/08 03:13:50;;;;;;;;;;;13.90;99.90;;;;;;5053302;28;19904;-67
2024/04/08 03:16:16;;;;;;;;;;;13.90;99.90;;;;;;5053174;28;19913;-67
2024/04/08 03:18:41;;;;;;;;;;;13.90;99.90;;;;;;5052931;28;20067;-67
2024/04/08 03:21:06;;;;;;;;;;;14.00;99.90;;;;;;5053269;28;20355;-67
2024/04/08 03:23:32;;;;;;;;;;;13.90;99.90;;;;;;5053142;28;19958;-67
2024/04/08 03:25:58;;;;;;;;;;;13.80;99.90;;;;;;5053116;28;19955;-67
2024/04/08 03:28:24;;;;;;;;;;;13.80;99.90;;;;;;5052815;28;19909;-67
2024/04/08 03:30:49;;;;;;;;;;;13.70;99.90;;;;;;5052938;28;19905;-66
2024/04/08 03:33:15;;;;;;;;;;;13.80;99.90;;;;;;5052982;28;19980;-66
2024/04/08 03:35:41;;;;;;;;;;;13.90;99.90;;;;;;5053081;28;19940;-66
2024/04/08 03:38:07;;;;;;;;;;;13.80;99.90;;;;;;5052901;28;20368;-66
2024/04/08 03:40:32;;;;;;;;;;;13.80;99.90;;;;;;5052483;28;19909;-66
2024/04/08 03:42:58;;;;;;;;;;;13.90;99.90;;;;;;5052733;28;19904;-66
2024/04/08 03:45:23;;;;;;;;;;;14.00;99.90;;;;;;5052740;28;20025;-66
2024/04/08 03:47:48;;;;;;;;;;;14.10;99.90;;;;;;5052732;28;19966;-66
2024/04/08 03:50:14;;;;;;;;;;;14.10;99.90;;;;;;5052328;28;19911;-66
2024/04/08 03:52:39;;;;;;;;;;;14.10;99.90;;;;;;5052595;28;19952;-66
2024/04/08 03:55:05;;;;;;;;;;;14.10;99.90;;;;;;5052585;28;20014;-66
2024/04/08 03:57:31;;;;;;;;;;;14.10;99.90;;;;;;5052571;28;19904;-66
2024/04/08 03:59:56;;;;;;;;;;;14.10;99.90;;;;;;5052069;28;20003;-66
2024/04/08 04:02:21;;;;;;;;;;;14.10;99.90;;;;;;5052502;28;20331;-66
2024/04/08 04:04:47;;;;;;;;;;;14.20;99.90;;;;;;5052438;28;19912;-66
2024/04/08 04:07:13;;;;;;;;;;;14.20;99.90;;;;;;5052397;28;19904;-66
2024/04/08 04:09:38;;;;;;;;;;;14.00;99.90;;;;;;5052191;28;20400;-66
2024/04/08 04:12:04;;;;;;;;;;;14.10;99.90;;;;;;5052339;28;19915;-66
2024/04/08 04:14:29;;;;;;;;;;;14.00;99.90;;;;;;5052349;28;20003;-66
2024/04/08 04:16:55;;;;;;;;;;;14.10;99.90;;;;;;5051509;28;19920;-66
2024/04/08 04:19:20;;;;;;;;;;;14.10;99.90;;;;;;5051961;28;20424;-66
2024/04/08 04:21:46;;;;;;;;;;;14.10;99.90;;;;;;5052128;28;19937;-66
2024/04/08 04:24:11;;;;;;;;;;;14.10;99.90;;;;;;5052197;28;19915;-66
2024/04/08 04:26:36;;;;;;;;;;;14.10;99.90;;;;;;5052097;28;19905;-66
2024/04/08 04:29:02;;;;;;;;;;;14.20;99.90;;;;;;5051886;28;19905;-66
2024/04/08 04:31:39;;;;;;;;;;;14.10;99.90;;;;;;5052149;28;19909;-66
2024/04/08 04:34:05;;;;;;;;;;;14.10;99.90;;;;;;5052146;28;20334;-66
2024/04/08 04:36:30;;;;;;;;;;;14.20;99.90;;;;;;5052120;28;19908;-66
2024/04/08 04:38:56;;;;;;;;;;;14.20;99.90;;;;;;5051690;28;20011;-66
2024/04/08 04:41:21;;;;;;;;;;;14.20;99.90;;;;;;5051939;28;19913;-66
2024/04/08 04:43:47;;;;;;;;;;;14.20;99.90;;;;;;5051945;28;20003;-66
2024/04/08 04:46:12;;;;;;;;;;;14.20;99.90;;;;;;5052020;28;20331;-66
2024/04/08 04:48:38;;;;;;;;;;;14.00;99.90;;;;;;5051696;28;19905;-66
2024/04/08 04:51:04;;;;;;;;;;;14.20;99.90;;;;;;5051940;28;20375;-66
2024/04/08 04:53:29;;;;;;;;;;;14.30;99.90;;;;;;5051902;28;20395;-66
2024/04/08 04:55:55;;;;;;;;;;;14.30;99.90;;;;;;5051839;28;19944;-66
2024/04/08 04:58:21;;;;;;;;;;;14.20;99.90;;;;;;5051448;28;19909;-66
2024/04/08 05:00:47;;;;;;;;;;;14.10;99.90;;;;;;5051478;28;19923;-66
2024/04/08 05:03:12;;;;;;;;;;;14.00;99.90;;;;;;5051844;28;19908;-66
2024/04/08 05:05:37;;;;;;;;;;;14.00;99.90;;;;;;5051811;28;19904;-66
2024/04/08 05:08:03;;;;;;;;;;;14.00;99.90;;;;;;5051771;28;20000;-66
2024/04/08 05:10:28;;;;;;;;;;;14.10;99.90;;;;;;5051478;28;19912;-66
2024/04/08 05:12:54;;;;;;;;;;;14.10;99.90;;;;;;5051689;28;20311;-66
2024/04/08 05:15:19;;;;;;;;;;;14.20;99.90;;;;;;5051700;28;19991;-66
2024/04/08 05:17:45;;;;;;;;;;;14.20;99.90;;;;;;5051603;28;20011;-66
2024/04/08 05:20:11;;;;;;;;;;;14.20;99.90;;;;;;5051439;28;19916;-66
2024/04/08 05:22:39;;;;;;;;;;;14.20;99.90;;;;;;5051639;28;19933;-66
2024/04/08 05:25:05;;;;;;;;;;;14.20;99.90;;;;;;5051608;28;19913;-66
2024/04/08 05:27:31;;;;;;;;;;;14.20;99.90;;;;;;5051654;28;19905;-66
2024/04/08 05:29:56;;;;;;;;;;;14.20;99.90;;;;;;5055228;28;19905;-66
2024/04/08 05:32:22;;;;;;;;;;;14.20;99.90;;;;;;5055162;28;20292;-66
2024/04/08 05:34:47;;;;;;;;;;;14.20;99.90;;;;;;5055232;28;19951;-66
2024/04/08 05:37:13;;;;;;;;;;;14.20;99.90;;;;;;5055165;28;20603;-66
2024/04/08 05:39:38;;;;;;;;;;;14.30;99.90;;;;;;5054704;28;19904;-66
2024/04/08 05:42:04;;;;;;;;;;;14.40;99.90;;;;;;5055024;28;19912;-66
2024/04/08 05:44:29;;;;;;;;;;;14.50;99.90;;;;;;5055226;28;19951;-66
2024/04/08 05:46:55;;;;;;;;;;;14.50;99.90;;;;;;5055041;28;20002;-66
2024/04/08 05:49:20;;;;;;;;;;;14.60;99.90;;;;;;5054688;28;19905;-67
2024/04/08 05:51:46;;;;;;;;;;;14.60;99.90;;;;;;5054900;28;19908;-67
2024/04/08 05:54:11;;;;;;;;;;;14.60;99.90;;;;;;5054754;28;20392;-67
2024/04/08 05:56:36;;;;;;;;;;;14.70;99.90;;;;;;5054744;28;19911;-67
2024/04/08 05:59:02;;;;;;;;;;;14.70;99.90;;;;;;5054479;28;19913;-67
2024/04/08 06:01:27;;;;;;;;;;;14.80;99.90;;;;;;5054703;28;19909;-67
2024/04/08 06:03:53;;;;;;;;;;;14.80;99.90;;;;;;5054666;28;19999;-67
2024/04/08 06:06:18;;;;;;;;;;;14.90;99.90;;;;;;5054594;28;19905;-67
2024/04/08 06:08:44;;;;;;;;;;;14.80;99.90;;;;;;5054250;28;19992;-67
2024/04/08 06:11:09;;;;;;;;;;;15.00;99.90;;;;;;5054491;28;19927;-67
2024/04/08 06:13:35;;;;;;;;;;;15.10;99.90;;;;;;5054472;28;19909;-67
2024/04/08 06:16:02;;;;;;;;;;;15.10;99.90;;;;;;5054367;28;19908;-67
2024/04/08 06:18:27;;;;;;;;;;;15.20;99.90;;;;;;5054237;28;20421;-67
2024/04/08 06:20:56;;;;;;;;;;;15.30;99.90;;;;;;5054158;28;19939;-68
2024/04/08 06:23:22;;;;;;;;;;;15.30;99.90;;;;;;5054246;28;19904;-67
2024/04/08 06:25:56;;;;;;;;;;;15.40;99.90;;;;;;5054294;28;19911;-67
2024/04/08 06:28:22;;;;;;;;;;;15.40;99.90;;;;;;5054091;28;20292;-67
2024/04/08 06:30:47;;;;;;;;;;;15.50;99.90;;;;;;5054289;28;19958;-67
2024/04/08 06:33:13;;;;;;;;;;;15.50;99.90;;;;;;5054129;28;19934;-67
2024/04/08 06:35:38;;;;;;;;;;;15.60;99.90;;;;;;5054128;28;19904;-68
2024/04/08 06:38:04;;;;;;;;;;;15.70;99.90;;;;;;5054080;28;20376;-68
2024/04/08 06:40:29;;;;;;;;;;;15.70;99.90;;;;;;5052980;28;19916;-68
2024/04/08 06:42:54;;;;;;;;;;;15.80;99.90;;;;;;5053954;28;20380;-68
2024/04/08 06:45:20;;;;;;;;;;;15.90;99.90;;;;;;5053947;28;20007;-68
2024/04/08 06:47:46;;;;;;;;;;;15.90;99.90;;;;;;5053902;28;20295;-68
2024/04/08 06:50:11;;;;;;;;;;;16.00;99.90;;;;;;5053519;28;19913;-67
2024/04/08 06:52:36;;;;;;;;;;;16.10;99.90;;;;;;5054028;28;19904;-67
2024/04/08 06:55:02;;;;;;;;;;;16.00;99.90;;;;;;5053694;28;19912;-67
2024/04/08 06:57:27;;;;;;;;;;;16.00;99.90;;;;;;5053662;28;20327;-68
2024/04/08 06:59:53;;;;;;;;;;;16.10;99.90;;;;;;5053099;28;19909;-67
2024/04/08 07:02:18;;;;;;;;;;;16.20;99.90;;;;;;5053456;28;19927;-67
2024/04/08 07:04:44;;;;;;;;;;;16.20;99.90;;;;;;5053375;28;19951;-67
2024/04/08 07:07:09;;;;;;;;;;;16.20;99.90;;;;;;5053329;28;20011;-67
2024/04/08 07:09:35;;;;;;;;;;;16.20;99.90;;;;;;5053068;28;19904;-68
2024/04/08 07:12:02;;;;;;;;;;;16.10;99.90;;;;;;5053484;28;19911;-68
2024/04/08 07:14:27;;;;;;;;;;;16.20;99.90;;;;;;5053409;28;19911;-68
2024/04/08 07:16:53;;;;;;;;;;;16.20;99.90;;;;;;5052987;28;19925;-68
2024/04/08 07:19:18;;;;;;;;;;;16.20;99.90;;;;;;5053097;28;19904;-67
2024/04/08 07:21:43;;;;;;;;;;;16.20;99.90;;;;;;5052914;28;20061;-67
2024/04/08 07:24:09;;;;;;;;;;;16.20;99.90;;;;;;5052948;28;19911;-68
2024/04/08 07:26:35;;;;;;;;;;;16.30;99.90;;;;;;5053015;28;19904;-68
2024/04/08 07:29:01;;;;;;;;;;;16.20;99.90;;;;;;5052747;28;19908;-68
2024/04/08 07:31:26;;;;;;;;;;;16.10;99.90;;;;;;5052790;28;19904;-68
2024/04/08 07:33:52;;;;;;;;;;;16.20;99.90;;;;;;5052780;28;19911;-68
2024/04/08 07:36:17;;;;;;;;;;;16.20;99.90;;;;;;5052722;28;19908;-68
2024/04/08 07:38:43;;;;;;;;;;;16.30;99.90;;;;;;5052409;28;19983;-68
2024/04/08 07:41:08;;;;;;;;;;;16.40;99.90;;;;;;5052594;28;19908;-68
2024/04/08 07:43:36;;;;;;;;;;;16.40;99.90;;;;;;5052820;28;20423;-68
2024/04/08 07:46:03;;;;;;;;;;;16.50;99.90;;;;;;5052572;28;19944;-68
2024/04/08 07:48:28;;;;;;;;;;;16.60;99.90;;;;;;5052308;28;20280;-67
2024/04/08 07:50:56;;;;;;;;;;;16.70;99.90;;;;;;5052015;28;19905;-68
2024/04/08 07:53:21;;;;;;;;;;;16.80;99.90;;;;;;5051895;28;19908;-68
2024/04/08 07:55:47;;;;;;;;;;;16.80;92.90;;;;;;5052464;28;19966;-68
2024/04/08 07:58:12;;;;;;;;;;;16.70;96.60;;;;;;5052358;28;19905;-68
2024/04/08 08:00:38;;;;;;;;;;;16.70;97.60;;;;;;5052118;28;19999;-68
2024/04/08 08:03:03;;;;;;;;;;;16.70;92.00;;;;;;5052342;28;19904;-68
2024/04/08 08:05:29;;;;;;;;;;;16.60;92.50;;;;;;5052212;28;19927;-68
2024/04/08 08:07:54;;;;;;;;;;;16.60;96.70;;;;;;5052245;28;20280;-68
2024/04/08 08:10:20;;;;;;;;;;;16.60;99.10;;;;;;5051877;28;19951;-68
2024/04/08 08:12:45;;;;;;;;;;;16.70;99.90;;;;;;5052300;28;20511;-68
2024/04/08 08:15:13;;;;;;;;;;;16.70;99.90;;;;;;5052175;28;19909;-68
2024/04/08 08:17:39;;;;;;;;;;;16.70;93.80;;;;;;5052061;28;19913;-68
2024/04/08 08:20:04;;;;;;;;;;;16.80;97.10;;;;;;5051782;28;19978;-68
2024/04/08 08:22:30;;;;;;;;;;;16.80;95.00;;;;;;5051976;28;19988;-68
2024/04/08 08:24:56;;;;;;;;;;;16.90;97.10;;;;;;5052330;28;19904;-68
2024/04/08 08:27:21;;;;;;;;;;;17.10;99.00;;;;;;5051991;28;20003;-68
2024/04/08 08:29:48;;;;;;;;;;;17.30;94.60;;;;;;5051709;28;19912;-68
2024/04/08 08:32:13;;;;;;;;;;;17.50;91.40;;;;;;5051994;28;20335;-68
2024/04/08 08:34:38;;;;;;;;;;;17.50;67.50;;;;;;5051903;28;19909;-68
2024/04/08 08:37:04;;;;;;;;;;;17.60;65.00;;;;;;5051950;28;20316;-68
2024/04/08 08:39:34;;;;;;;;;;;17.60;61.30;;;;;;5051577;28;20058;-68
2024/04/08 08:42:00;;;;;;;;;;;17.70;58.80;;;;;;5051955;28;19909;-68
2024/04/08 08:44:27;;;;;;;;;;;17.80;68.40;;;;;;5051835;28;19912;-68
2024/04/08 08:46:53;;;;;;;;;;;17.80;70.30;;;;;;5051852;28;19993;-68
2024/04/08 08:49:18;;;;;;;;;;;17.90;47.70;;;;;;5051533;28;20388;-68
2024/04/08 08:51:44;;;;;;;;;;;18.00;61.50;;;;;;5051846;28;19905;-68
2024/04/08 08:54:12;;;;;;;;;;;18.20;49.40;;;;;;5051759;28;20384;-68
2024/04/08 08:56:38;;;;;;;;;;;18.30;35.50;;;;;;5051764;28;19905;-68
2024/04/08 08:59:03;;;;;;;;;;;18.30;34.10;;;;;;5051528;28;19928;-67
2024/04/08 09:01:32;;;;;;;;;;;18.30;49.50;;;;;;5051701;28;20357;-67
2024/04/08 09:03:59;;;;;;;;;;;18.40;46.20;;;;;;5054236;28;19909;-66
2024/04/08 09:06:25;;;;;;;;;;;18.40;43.90;;;;;;5055599;28;20316;-67
2024/04/08 09:08:50;;;;;;;;;;;18.60;48.20;;;;;;5055382;28;19959;-67
2024/04/08 09:11:16;;;;;;;;;;;18.50;35.10;;;;;;5055560;28;19947;-67
2024/04/08 09:13:41;;;;;;;;;;;18.60;35.70;;;;;;5055561;28;19909;-66
2024/04/08 09:16:08;;;;;;;;;;;18.70;32.30;;;;;;5055381;28;19978;-67
2024/04/08 09:18:34;;;;;;;;;;;18.90;21.80;;;;;;5055187;28;19905;-66
2024/04/08 09:20:59;;;;;;;;;;;19.00;20.70;;;;;;5055134;28;19961;-67
2024/04/08 09:23:25;;;;;;;;;;;19.10;28.00;;;;;;5055340;28;19913;-66
2024/04/08 09:25:51;;;;;;;;;;;19.20;24.80;;;;;;5055296;28;19908;-67
2024/04/08 09:28:16;;;;;;;;;;;19.10;12.70;;;;;;5055066;28;19905;-66
2024/04/08 09:30:42;;;;;;;;;;;19.20;11.70;;;;;;5055127;28;20288;-67
2024/04/08 09:33:09;;;;;;;;;;;19.20;12.50;;;;;;5055126;28;19992;-68
2024/04/08 09:35:38;;;;;;;;;;;19.20;17.70;;;;;;5055160;28;19912;-67
2024/04/08 09:38:04;;;;;;;;;;;19.30;19.80;;;;;;5055114;28;20422;-67
2024/04/08 09:40:30;;;;;;;;;;;19.20;18.10;;;;;;5054667;28;19931;-67
2024/04/08 09:42:56;;;;;;;;;;;19.40;22.10;;;;;;5055014;28;19905;-67
2024/04/08 09:45:22;;;;;;;;;;;19.50;14.00;;;;;;5054973;28;19904;-67
2024/04/08 09:47:48;;;;;;;;;;;19.60;15.60;;;;;;5054938;28;19905;-67
2024/04/08 09:50:16;;;;;;;;;;;19.70;15.00;;;;;;5054564;28;19908;-67
2024/04/08 09:52:42;;;;;;;;;;;19.80;9.70;;;;;;5054824;28;19950;-66
2024/04/08 09:55:08;;;;;;;;;;;19.90;11.10;;;;;;5054903;28;19905;-67
2024/04/08 09:57:37;;;;;;;;;;;20.00;11.20;;;;;;5054881;28;19905;-67
2024/04/08 10:00:04;;;;;;;;;;;20.20;11.20;;;;;;5054333;28;20279;-67
2024/04/08 10:02:41;;;;;;;;;;;20.40;1.20;;;;;;5054565;28;20284;-67
2024/04/08 10:05:07;;;;;;;;;;;20.40;4.10;;;;;;5054699;28;19912;-67
2024/04/08 10:07:33;;;;;;;;;;;20.30;3.30;;;;;;5054562;28;20372;-66
2024/04/08 10:10:01;;;;;;;;;;;20.30;1.00;;;;;;5054245;28;19991;-67
2024/04/08 10:12:33;;;;;;;;;;;20.30;1.80;;;;;;5054465;28;19966;-67
2024/04/08 10:15:15;;;;;;;;;;;20.40;1.00;;;;;;5053442;28;20011;-67
2024/04/08 10:17:44;;;;;;;;;;;20.50;1.00;;;;;;5054300;28;19956;-67
2024/04/08 10:20:14;;;;;;;;;;;20.70;1.00;;;;;;5054021;28;19954;-67
2024/04/08 10:22:40;;;;;;;;;;;20.80;1.00;;;;;;5054428;28;20253;-67
2024/04/08 10:25:25;;;;;;;;;;;20.90;1.00;;;;;;5054281;28;19958;-67
2024/04/08 10:27:58;;;;;;;;;;;21.10;1.00;;;;;;5054195;28;20268;-67
2024/04/08 10:30:24;;;;;;;;;;;21.30;1.00;;;;;;5053788;28;19912;-67
2024/04/08 10:32:50;;;;;;;;;;;21.20;1.00;;;;;;5054157;28;19905;-67
2024/04/08 10:35:16;;;;;;;;;;;21.10;1.00;;;;;;5054172;28;20379;-66
2024/04/08 10:37:41;;;;;;;;;;;21.10;1.00;;;;;;5054175;28;19950;-67
2024/04/08 10:40:07;;;;;;;;;;;21.10;1.00;;;;;;5053606;28;19915;-66
2024/04/08 10:42:33;;;;;;;;;;;21.30;1.00;;;;;;5054141;28;19911;-68
2024/04/08 10:44:58;;;;;;;;;;;21.50;1.00;;;;;;5053914;28;19951;-68
2024/04/08 10:47:24;;;;;;;;;;;21.50;1.00;;;;;;5053981;28;20357;-68
2024/04/08 10:49:49;;;;;;;;;;;21.50;1.00;;;;;;5053546;28;19909;-68
2024/04/08 10:52:15;;;;;;;;;;;21.40;1.00;;;;;;5053778;28;20350;-67
2024/04/08 10:54:41;;;;;;;;;;;21.20;1.00;;;;;;5053662;28;19909;-67
2024/04/08 10:57:06;;;;;;;;;;;21.00;1.00;;;;;;5053683;28;20395;-67
2024/04/08 10:59:31;;;;;;;;;;;20.90;1.00;;;;;;5053275;28;19954;-67
2024/04/08 11:01:58;;;;;;;;;;;20.80;1.00;;;;;;5053498;28;19909;-67
2024/04/08 11:04:23;;;;;;;;;;;20.60;1.00;;;;;;5053582;28;19927;-67
2024/04/08 11:06:49;;;;;;;;;;;20.60;1.00;;;;;;5053513;28;19909;-67
2024/04/08 11:09:14;;;;;;;;;;;20.70;1.00;;;;;;5053101;28;19905;-67
2024/04/08 11:11:40;;;;;;;;;;;20.90;1.00;;;;;;5053406;28;19954;-67
2024/04/08 11:14:05;;;;;;;;;;;21.30;1.00;;;;;;5053347;28;19912;-67
2024/04/08 11:16:31;;;;;;;;;;;21.60;1.00;;;;;;5053163;28;19913;-67
2024/04/08 11:18:56;;;;;;;;;;;22.00;1.00;;;;;;5053100;28;19909;-67
2024/04/08 11:21:22;;;;;;;;;;;22.40;1.00;;;;;;5053156;28;19908;-67
2024/04/08 11:23:47;;;;;;;;;;;22.60;1.00;;;;;;5053115;28;19905;-67
2024/04/08 11:26:16;;;;;;;;;;;22.80;1.00;;;;;;5053084;28;19905;-68
2024/04/08 11:28:42;;;;;;;;;;;23.20;1.00;;;;;;5052743;28;19911;-68
2024/04/08 11:31:08;;;;;;;;;;;22.90;1.00;;;;;;5053009;28;20323;-68
2024/04/08 11:33:33;;;;;;;;;;;23.10;1.00;;;;;;5052992;28;19911;-68
2024/04/08 11:35:59;;;;;;;;;;;23.30;1.00;;;;;;5052968;28;19905;-68
2024/04/08 11:38:24;;;;;;;;;;;23.60;1.00;;;;;;5052634;28;20003;-68
2024/04/08 11:40:52;;;;;;;;;;;23.90;1.00;;;;;;5052688;28;19912;-68
2024/04/08 11:43:17;;;;;;;;;;;24.20;1.00;;;;;;5052824;28;20479;-68
2024/04/08 11:45:43;;;;;;;;;;;24.40;1.00;;;;;;5052776;28;19908;-68
2024/04/08 11:48:08;;;;;;;;;;;24.10;1.00;;;;;;5052743;28;20322;-68
2024/04/08 11:50:34;;;;;;;;;;;24.10;1.00;;;;;;5052442;28;19909;-68
2024/04/08 11:53:00;;;;;;;;;;;24.00;1.00;;;;;;5052675;28;20450;-68
2024/04/08 11:55:25;;;;;;;;;;;24.10;1.00;;;;;;5052678;28;19904;-68
2024/04/08 11:57:51;;;;;;;;;;;24.10;1.00;;;;;;5052590;28;19909;-68
2024/04/08 12:00:20;;;;;;;;;;;24.20;1.00;;;;;;5052175;28;20383;-68
2024/04/08 12:02:47;;;;;;;;;;;24.30;1.00;;;;;;5052513;28;20381;-68
2024/04/08 12:05:12;;;;;;;;;;;24.30;1.00;;;;;;5052594;28;19932;-68
2024/04/08 12:07:38;;;;;;;;;;;24.20;1.00;;;;;;5052377;28;19905;-68
2024/04/08 12:10:04;;;;;;;;;;;23.70;1.00;;;;;;5052342;28;19908;-68
2024/04/08 12:12:30;;;;;;;;;;;23.50;1.00;;;;;;5052469;28;19936;-68
2024/04/08 12:14:56;;;;;;;;;;;23.10;1.00;;;;;;5052281;28;19912;-68
2024/04/08 12:17:21;;;;;;;;;;;22.80;1.00;;;;;;5052231;28;19912;-68
2024/04/08 12:19:48;;;;;;;;;;;22.40;1.00;;;;;;5051886;28;19905;-68
2024/04/08 12:22:14;;;;;;;;;;;22.20;1.00;;;;;;5052277;28;20352;-68
2024/04/08 12:24:39;;;;;;;;;;;21.90;1.00;;;;;;5052230;28;19940;-68
2024/04/08 12:27:05;;;;;;;;;;;21.70;1.00;;;;;;5052344;28;19909;-68
2024/04/08 12:29:30;;;;;;;;;;;21.60;1.00;;;;;;5051834;28;19908;-68
2024/04/08 12:31:56;;;;;;;;;;;21.50;1.00;;;;;;5052132;28;19905;-68
2024/04/08 12:34:21;;;;;;;;;;;21.30;1.00;;;;;;5052079;28;20384;-68
2024/04/08 12:36:47;;;;;;;;;;;21.30;1.00;;;;;;5051959;28;19977;-68
2024/04/08 12:39:12;;;;;;;;;;;21.20;1.00;;;;;;5057781;28;19905;-68
2024/04/08 12:41:38;;;;;;;;;;;21.20;1.00;;;;;;5058541;28;19916;-68
2024/04/08 12:44:03;;;;;;;;;;;21.30;1.00;;;;;;5058609;28;20261;-68
2024/04/08 12:46:29;;;;;;;;;;;21.30;1.00;;;;;;5058630;28;19995;-68
2024/04/08 12:48:54;;;;;;;;;;;21.50;1.00;;;;;;5058325;28;19912;-68
2024/04/08 12:51:20;;;;;;;;;;;21.40;1.00;;;;;;5058892;28;19915;-68
2024/04/08 12:53:45;;;;;;;;;;;21.60;1.00;;;;;;5058600;28;19991;-68
2024/04/08 12:56:11;;;;;;;;;;;21.60;1.00;;;;;;5058590;28;20326;-68
2024/04/08 12:58:37;;;;;;;;;;;21.60;1.00;;;;;;5058229;28;20284;-68
2024/04/08 13:01:03;;;;;;;;;;;21.80;1.00;;;;;;5058473;28;19912;-68
2024/04/08 13:03:28;;;;;;;;;;;21.70;1.00;;;;;;5058387;28;19905;-68
2024/04/08 13:05:54;;;;;;;;;;;21.60;1.00;;;;;;5058426;28;19905;-68
2024/04/08 13:08:19;;;;;;;;;;;21.40;1.00;;;;;;5058209;28;19911;-68
2024/04/08 13:10:45;;;;;;;;;;;21.40;1.00;;;;;;5058298;28;19947;-68
2024/04/08 13:13:11;;;;;;;;;;;21.30;1.00;;;;;;5058355;28;19963;-68
2024/04/08 13:15:36;;;;;;;;;;;21.30;5.50;;;;;;5058366;28;20357;-68
2024/04/08 13:18:02;;;;;;;;;;;21.40;6.30;;;;;;5058293;28;19920;-68
2024/04/08 13:21:45;;;;;;;;;;;21.30;17.00;;;;;;5470670;26;19924;-68
2024/04/08 13:24:10;;;;;;;;;;;21.30;7.80;;;;;;5470710;26;20000;-68
2024/04/08 13:26:41;;;;;;;;;;;21.20;7.60;;;;;;5470594;26;19936;-68
2024/04/08 13:29:07;;;;;;;;;;;21.10;8.70;;;;;;5462740;26;19936;-68
2024/04/08 13:31:33;;;;;;;;;;;21.10;12.10;;;;;;5434361;26;19929;-68
2024/04/08 13:33:59;;;;;;;;;;;21.00;15.40;;;;;;5434521;26;19929;-68
2024/04/08 13:36:24;;;;;;;;;;;20.90;16.90;;;;;;5434448;26;19929;-68
2024/04/08 13:38:50;;;;;;;;;;;20.60;26.60;;;;;;5433804;26;19929;-68
2024/04/08 13:41:16;;;;;;;;;;;20.80;17.10;;;;;;5433992;26;20369;-68
2024/04/08 13:43:41;;;;;;;;;;;20.60;18.20;;;;;;5434261;26;19929;-67
2024/04/08 13:46:07;;;;;;;;;;;20.60;21.00;;;;;;5434037;26;20021;-67
2024/04/08 13:48:33;;;;;;;;;;;20.60;25.50;;;;;;5433733;26;20300;-67
2024/04/08 13:50:58;;;;;;;;;;;20.50;26.90;;;;;;5433887;26;20254;-67
2024/04/08 13:53:25;;;;;;;;;;;20.50;30.90;;;;;;5434020;26;20010;-67
2024/04/08 13:55:59;;;;;;;;;;;20.60;37.10;;;;;;5433755;26;20361;-67
2024/04/08 13:58:25;;;;;;;;;;;20.70;39.30;;;;;;5433453;26;19937;-67
2024/04/08 14:00:50;;;;;;;;;;;21.00;48.80;;;;;;5433727;26;19939;-67
2024/04/08 14:03:16;;;;;;;;;;;21.30;55.00;;;;;;5434221;26;19936;-67
2024/04/08 14:05:41;;;;;;;;;;;21.70;54.30;;;;;;5433798;26;19929;-67
2024/04/08 14:08:07;;;;;;;;;;;22.10;23.50;;;;;;5433770;26;20279;-67
2024/04/08 14:10:33;;;;;;;;;;;22.70;17.60;;;;;;5433190;26;19929;-67
2024/04/08 14:12:59;;;;;;;;;;;23.70;8.20;;;;;;5433498;26;19929;-67
2024/04/08 14:15:24;;;;;;;;;;;24.90;1.00;;;;;;5433761;26;19998;-67